Time;durP1;ratioP1;P1;durP2;ratioP2;P2;SDS_P1;SDS_P2;PMS_P1;PMS_P2;Temp;Humidity;BMP_temperature;BMP_pressure;BME280_temperature;BME280_humidity;BME280_pressure;Samples;Min_cycle;Max_cycle;Signal;HPM_P1;HPM_P2
2023/06/15 00:00:33;;;;;;;7.78;5.15;;;;;;;;;;5028177;28;20021;-61
2023/06/15 00:02:58;;;;;;;8.35;5.35;;;;;;;;;;5025717;28;20052;-59
2023/06/15 00:05:26;;;;;;;8.18;5.60;;;;;;;;;;5032580;28;20136;-60
2023/06/15 00:07:51;;;;;;;7.00;5.07;;;;;;;;;;5030915;28;20779;-60
2023/06/15 00:10:19;;;;;;;9.20;5.50;;;;;;;;;;5029372;28;20024;-60
2023/06/15 00:12:44;;;;;;;7.88;5.72;;;;;;;;;;5030811;28;20040;-60
2023/06/15 00:15:10;;;;;;;7.50;5.50;;;;;;;;;;5026416;28;20146;-60
2023/06/15 00:17:41;;;;;;;8.90;5.50;;;;;;;;;;5039202;28;20268;-62
2023/06/15 00:20:10;;;;;;;8.32;5.30;;;;;;;;;;5030917;28;20139;-60
2023/06/15 00:22:45;;;;;;;8.13;5.38;;;;;;;;;;5032226;28;20149;-60
2023/06/15 00:25:10;;;;;;;7.43;5.22;;;;;;;;;;5033386;28;20839;-61
2023/06/15 00:27:36;;;;;;;7.75;4.90;;;;;;;;;;5034544;28;20098;-60
2023/06/15 00:30:02;;;;;;;9.93;5.55;;;;;;;;;;5030436;28;20055;-61
2023/06/15 00:32:27;;;;;;;8.73;5.32;;;;;;;;;;5034966;28;20735;-60
2023/06/15 00:34:52;;;;;;;7.27;5.43;;;;;;;;;;5025083;28;20029;-61
2023/06/15 00:37:20;;;;;;;7.60;5.17;;;;;;;;;;5034508;28;20243;-60
2023/06/15 00:39:45;;;;;;;7.95;5.35;;;;;;;;;;5032924;28;20599;-61
2023/06/15 00:42:13;;;;;;;8.80;5.70;;;;;;;;;;5032889;28;20026;-61
2023/06/15 00:44:38;;;;;;;6.80;4.75;;;;;;;;;;5035671;28;20270;-61
2023/06/15 00:47:04;;;;;;;8.10;4.87;;;;;;;;;;5027308;28;20029;-61
2023/06/15 00:49:32;;;;;;;6.97;4.82;;;;;;;;;;5029175;28;20856;-60
2023/06/15 00:51:58;;;;;;;8.80;5.07;;;;;;;;;;5026069;28;20021;-61
2023/06/15 00:54:24;;;;;;;7.75;5.22;;;;;;;;;;5024348;28;20040;-61
2023/06/15 00:56:50;;;;;;;8.13;5.65;;;;;;;;;;5021891;28;20075;-60
2023/06/15 00:59:16;;;;;;;11.82;6.03;;;;;;;;;;5032169;28;20024;-60
2023/06/15 01:01:44;;;;;;;8.00;5.20;;;;;;;;;;5029564;28;20017;-60
2023/06/15 01:04:10;;;;;;;7.38;4.97;;;;;;;;;;5027979;28;20025;-60
2023/06/15 01:06:41;;;;;;;7.63;5.03;;;;;;;;;;5025564;28;20071;-60
2023/06/15 01:09:08;;;;;;;8.15;5.32;;;;;;;;;;5026320;28;20128;-61
2023/06/15 01:11:34;;;;;;;6.90;5.10;;;;;;;;;;5024463;28;20130;-61
2023/06/15 01:14:02;;;;;;;7.10;4.78;;;;;;;;;;5028870;28;20017;-60
2023/06/15 01:16:33;;;;;;;8.10;4.70;;;;;;;;;;5032176;28;20127;-62
2023/06/15 01:19:01;;;;;;;7.28;5.03;;;;;;;;;;5023520;28;20021;-60
2023/06/15 01:21:30;;;;;;;9.48;5.25;;;;;;;;;;5027075;28;20063;-61
2023/06/15 01:24:02;;;;;;;9.73;5.88;;;;;;;;;;5026402;28;20090;-61
2023/06/15 01:26:32;;;;;;;7.72;5.30;;;;;;;;;;5028825;28;20133;-61
2023/06/15 01:28:59;;;;;;;;;;;;;;;;;;5029253;28;20132;-61
2023/06/15 01:31:26;;;;;;;7.35;5.40;;;;;;;;;;5030059;28;19971;-60
2023/06/15 01:33:55;;;;;;;7.75;5.80;;;;;;;;;;5028550;28;20151;-61
2023/06/15 01:36:23;;;;;;;8.50;5.25;;;;;;;;;;5028847;28;20024;-59
2023/06/15 01:38:50;;;;;;;7.43;5.28;;;;;;;;;;5022456;28;20094;-61
2023/06/15 01:41:18;;;;;;;7.55;5.60;;;;;;;;;;5026308;28;20034;-60
2023/06/15 01:43:45;;;;;;;9.10;5.30;;;;;;;;;;5031270;28;20154;-60
2023/06/15 01:46:12;;;;;;;8.80;5.65;;;;;;;;;;5029780;28;20029;-60
2023/06/15 01:48:40;;;;;;;7.90;5.15;;;;;;;;;;5032345;28;20033;-60
2023/06/15 01:51:06;;;;;;;7.50;5.35;;;;;;;;;;5032879;28;20024;-60
2023/06/15 01:53:31;;;;;;;8.57;5.35;;;;;;;;;;5033271;28;20020;-60
2023/06/15 01:55:59;;;;;;;7.77;5.13;;;;;;;;;;5036961;28;20024;-60
2023/06/15 01:58:25;;;;;;;8.10;5.35;;;;;;;;;;5028937;28;20272;-60
2023/06/15 02:00:53;;;;;;;6.68;4.43;;;;;;;;;;5035544;28;20021;-61
2023/06/15 02:03:18;;;;;;;7.45;4.97;;;;;;;;;;5031244;28;20033;-60
2023/06/15 02:05:43;;;;;;;7.32;5.10;;;;;;;;;;5029028;28;20403;-60
2023/06/15 02:08:09;;;;;;;8.43;5.23;;;;;;;;;;5029642;28;20486;-62
2023/06/15 02:10:35;;;;;;;6.60;5.18;;;;;;;;;;5030856;28;21084;-59
2023/06/15 02:13:00;;;;;;;7.38;5.20;;;;;;;;;;5031760;28;20031;-60
2023/06/15 02:15:26;;;;;;;7.57;4.97;;;;;;;;;;5026236;28;20029;-60
2023/06/15 02:17:59;;;;;;;9.77;5.30;;;;;;;;;;5024789;28;20029;-60
2023/06/15 02:20:25;;;;;;;7.47;4.97;;;;;;;;;;5027628;28;20048;-60
2023/06/15 02:22:52;;;;;;;9.00;5.00;;;;;;;;;;5027661;28;20031;-61
2023/06/15 02:25:18;;;;;;;8.85;5.05;;;;;;;;;;5025075;28;20456;-60
2023/06/15 02:27:43;;;;;;;8.23;5.32;;;;;;;;;;5025046;28;20017;-61
2023/06/15 02:30:09;;;;;;;9.18;5.30;;;;;;;;;;5026399;28;20818;-60
2023/06/15 02:32:39;;;;;;;7.15;5.45;;;;;;;;;;5021424;28;21380;-60
2023/06/15 02:35:06;;;;;;;7.30;5.03;;;;;;;;;;5021969;28;20020;-61
2023/06/15 02:37:34;;;;;;;6.65;4.75;;;;;;;;;;5019810;28;20029;-60
2023/06/15 02:40:00;;;;;;;6.45;4.72;;;;;;;;;;5027415;28;20059;-60
2023/06/15 02:42:25;;;;;;;7.18;5.25;;;;;;;;;;5030515;28;20464;-59
2023/06/15 02:44:51;;;;;;;7.07;4.63;;;;;;;;;;5032240;28;20025;-60
2023/06/15 02:47:16;;;;;;;6.93;5.05;;;;;;;;;;5028956;28;20030;-61
2023/06/15 02:49:43;;;;;;;8.55;5.03;;;;;;;;;;5034050;28;20798;-60
2023/06/15 02:52:09;;;;;;;8.50;4.82;;;;;;;;;;5031649;28;20109;-60
2023/06/15 02:54:36;;;;;;;7.95;5.15;;;;;;;;;;5034655;28;20033;-60
2023/06/15 02:57:06;;;;;;;8.65;5.30;;;;;;;;;;5036133;28;20093;-60
2023/06/15 02:59:32;;;;;;;;;;;;;;;;;;5032290;28;20632;-59
2023/06/15 03:02:00;;;;;;;6.53;4.50;;;;;;;;;;5036509;28;19913;-60
2023/06/15 03:04:27;;;;;;;7.07;5.15;;;;;;;;;;5031053;28;20020;-61
2023/06/15 03:06:52;;;;;;;7.85;5.03;;;;;;;;;;5036514;28;20819;-60
2023/06/15 03:09:18;;;;;;;9.18;5.35;;;;;;;;;;5029018;28;20079;-60
2023/06/15 03:11:44;;;;;;;7.07;5.13;;;;;;;;;;5030517;28;20730;-61
2023/06/15 03:14:11;;;;;;;9.23;5.72;;;;;;;;;;5038004;28;20306;-60
2023/06/15 03:16:46;;;;;;;7.50;5.68;;;;;;;;;;5029533;28;20072;-59
2023/06/15 03:19:12;;;;;;;9.15;5.68;;;;;;;;;;5026991;28;20102;-60
2023/06/15 03:21:41;;;;;;;8.02;5.57;;;;;;;;;;5023066;28;20108;-60
2023/06/15 03:24:08;;;;;;;8.68;5.20;;;;;;;;;;5032335;28;20092;-59
2023/06/15 03:26:33;;;;;;;6.68;4.95;;;;;;;;;;5030251;28;20120;-60
2023/06/15 03:29:00;;;;;;;7.28;5.00;;;;;;;;;;5031949;28;20226;-60
2023/06/15 03:31:28;;;;;;;8.05;4.88;;;;;;;;;;5028114;28;20053;-60
2023/06/15 03:33:59;;;;;;;7.53;4.95;;;;;;;;;;5024991;28;20040;-61
2023/06/15 03:36:29;;;;;;;9.65;5.13;;;;;;;;;;5029293;28;20053;-60
2023/06/15 03:38:54;;;;;;;8.02;5.35;;;;;;;;;;5031442;28;20033;-60
2023/06/15 03:41:19;;;;;;;7.15;5.40;;;;;;;;;;5034446;28;20024;-61
2023/06/15 03:43:47;;;;;;;7.23;4.93;;;;;;;;;;5025887;28;20029;-60
2023/06/15 03:46:17;;;;;;;8.30;5.40;;;;;;;;;;5035798;28;20275;-60
2023/06/15 03:48:45;;;;;;;7.63;5.25;;;;;;;;;;5032777;28;20047;-60
2023/06/15 03:51:11;;;;;;;8.52;5.45;;;;;;;;;;5036774;28;20460;-61
2023/06/15 03:53:41;;;;;;;8.63;5.57;;;;;;;;;;5031807;28;20021;-60
2023/06/15 03:56:08;;;;;;;7.68;5.85;;;;;;;;;;5030711;28;20041;-60
2023/06/15 03:58:33;;;;;;;8.70;5.50;;;;;;;;;;5032674;28;20025;-60
2023/06/15 04:01:00;;;;;;;9.70;5.50;;;;;;;;;;5026925;28;20029;-60
2023/06/15 04:03:27;;;;;;;8.23;5.38;;;;;;;;;;5031264;28;20119;-61
2023/06/15 04:05:55;;;;;;;7.60;5.35;;;;;;;;;;5028395;28;20021;-60
2023/06/15 04:08:20;;;;;;;8.38;5.57;;;;;;;;;;5031533;28;20433;-60
2023/06/15 04:10:46;;;;;;;7.65;5.75;;;;;;;;;;5032633;28;20101;-60
2023/06/15 04:13:11;;;;;;;10.27;6.10;;;;;;;;;;5034829;28;20036;-60
2023/06/15 04:15:36;;;;;;;8.18;5.63;;;;;;;;;;5029724;28;20025;-59
2023/06/15 04:18:02;;;;;;;8.55;5.68;;;;;;;;;;5028427;28;20028;-60
2023/06/15 04:20:28;;;;;;;8.25;6.00;;;;;;;;;;5063819;28;20071;-60
2023/06/15 04:22:56;;;;;;;9.25;6.07;;;;;;;;;;5037266;28;20025;-60
2023/06/15 04:25:21;;;;;;;7.80;5.95;;;;;;;;;;5033560;28;20025;-60
2023/06/15 04:27:46;;;;;;;9.80;6.43;;;;;;;;;;5028839;28;20031;-60
2023/06/15 04:30:16;;;;;;;8.87;6.27;;;;;;;;;;5027244;28;20636;-60
2023/06/15 04:32:42;;;;;;;8.93;6.13;;;;;;;;;;5027326;28;20645;-60
2023/06/15 04:35:09;;;;;;;9.73;6.38;;;;;;;;;;5030327;28;20020;-60
2023/06/15 04:37:39;;;;;;;13.93;6.78;;;;;;;;;;5040812;28;20032;-60
2023/06/15 04:40:04;;;;;;;8.98;6.40;;;;;;;;;;5028350;28;20029;-61
2023/06/15 04:42:33;;;;;;;10.18;5.75;;;;;;;;;;5023611;28;20087;-60
2023/06/15 04:44:59;;;;;;;7.88;5.95;;;;;;;;;;5025222;28;20484;-60
2023/06/15 04:47:25;;;;;;;8.65;6.38;;;;;;;;;;5025234;28;20020;-60
2023/06/15 04:49:50;;;;;;;9.70;6.40;;;;;;;;;;5023221;28;20021;-60
2023/06/15 04:52:15;;;;;;;8.73;6.28;;;;;;;;;;5023207;28;20021;-60
2023/06/15 04:54:41;;;;;;;8.88;6.32;;;;;;;;;;5035811;28;20025;-60
2023/06/15 04:57:08;;;;;;;8.30;6.32;;;;;;;;;;5025018;28;20040;-60
2023/06/15 04:59:34;;;;;;;9.80;6.65;;;;;;;;;;5031098;28;20013;-61
2023/06/15 05:02:00;;;;;;;8.63;6.78;;;;;;;;;;5034674;28;20866;-60
2023/06/15 05:04:27;;;;;;;9.40;7.28;;;;;;;;;;5028812;28;20022;-60
2023/06/15 05:06:53;;;;;;;10.88;6.45;;;;;;;;;;5029182;28;20656;-61
2023/06/15 05:09:19;;;;;;;8.17;6.63;;;;;;;;;;5030873;28;20032;-60
2023/06/15 05:11:44;;;;;;;10.73;7.10;;;;;;;;;;5031757;28;20275;-60
2023/06/15 05:14:09;;;;;;;8.77;6.60;;;;;;;;;;5021792;28;20037;-61
2023/06/15 05:16:35;;;;;;;8.90;6.93;;;;;;;;;;5027285;28;20052;-59
2023/06/15 05:19:05;;;;;;;10.20;7.47;;;;;;;;;;5022142;28;20116;-60
2023/06/15 05:21:30;;;;;;;12.00;7.65;;;;;;;;;;5028558;28;21085;-60
2023/06/15 05:23:55;;;;;;;11.77;7.47;;;;;;;;;;5024350;28;20032;-60
2023/06/15 05:26:20;;;;;;;10.47;7.57;;;;;;;;;;5025341;28;21197;-61
2023/06/15 05:28:48;;;;;;;10.60;7.07;;;;;;;;;;5030227;28;20259;-60
2023/06/15 05:31:14;;;;;;;10.57;7.78;;;;;;;;;;5027466;28;20279;-61
2023/06/15 05:33:39;;;;;;;10.20;8.02;;;;;;;;;;5028398;28;20029;-60
2023/06/15 05:36:05;;;;;;;11.48;7.65;;;;;;;;;;5030254;28;21175;-60
2023/06/15 05:38:31;;;;;;;10.30;7.40;;;;;;;;;;5027828;28;20008;-60
2023/06/15 05:40:58;;;;;;;9.83;7.20;;;;;;;;;;5028756;28;20017;-60
2023/06/15 05:43:23;;;;;;;11.50;6.90;;;;;;;;;;5029635;28;20385;-60
2023/06/15 05:45:49;;;;;;;9.00;6.95;;;;;;;;;;5022760;28;20124;-61
2023/06/15 05:48:14;;;;;;;12.48;7.72;;;;;;;;;;5023945;28;20800;-60
2023/06/15 05:50:42;;;;;;;11.75;8.13;;;;;;;;;;5032286;28;20469;-60
2023/06/15 05:53:07;;;;;;;12.95;7.80;;;;;;;;;;5024897;28;20844;-60
2023/06/15 05:55:36;;;;;;;10.68;7.50;;;;;;;;;;5025171;28;20109;-60
2023/06/15 05:58:03;;;;;;;10.93;7.30;;;;;;;;;;5031871;28;20035;-60
2023/06/15 06:00:31;;;;;;;11.93;7.25;;;;;;;;;;5032549;28;20013;-60
2023/06/15 06:03:01;;;;;;;9.27;7.05;;;;;;;;;;5032587;28;20090;-60
2023/06/15 06:05:26;;;;;;;9.15;6.50;;;;;;;;;;5027372;28;20160;-60
2023/06/15 06:07:51;;;;;;;9.65;7.03;;;;;;;;;;5030256;28;20658;-60
2023/06/15 06:10:17;;;;;;;10.27;6.83;;;;;;;;;;5022181;28;20021;-60
2023/06/15 06:12:42;;;;;;;9.65;6.70;;;;;;;;;;5026579;28;20813;-60
2023/06/15 06:15:07;;;;;;;9.00;6.63;;;;;;;;;;5037680;28;20035;-60
2023/06/15 06:17:35;;;;;;;10.30;6.80;;;;;;;;;;5029565;28;20656;-61
2023/06/15 06:20:01;;;;;;;10.63;7.20;;;;;;;;;;5031707;28;20480;-60
2023/06/15 06:22:26;;;;;;;9.07;6.15;;;;;;;;;;5036622;28;20028;-60
2023/06/15 06:24:51;;;;;;;11.37;6.87;;;;;;;;;;5028294;28;20017;-58
2023/06/15 06:27:19;;;;;;;8.97;6.20;;;;;;;;;;5028057;28;20996;-61
2023/06/15 06:29:46;;;;;;;9.32;6.15;;;;;;;;;;5029095;28;20283;-60
2023/06/15 06:32:14;;;;;;;10.00;6.32;;;;;;;;;;5026951;28;20024;-61
2023/06/15 06:34:39;;;;;;;11.40;6.57;;;;;;;;;;5033263;28;20087;-60
2023/06/15 06:37:09;;;;;;;8.03;6.30;;;;;;;;;;5031672;28;20644;-60
2023/06/15 06:39:34;;;;;;;10.35;6.90;;;;;;;;;;5027048;28;20317;-59
2023/06/15 06:42:00;;;;;;;8.50;6.50;;;;;;;;;;5028582;28;20064;-60
2023/06/15 06:44:26;;;;;;;9.30;6.57;;;;;;;;;;5031707;28;20362;-61
2023/06/15 06:46:51;;;;;;;10.80;7.45;;;;;;;;;;5035694;28;20068;-60
2023/06/15 06:49:16;;;;;;;9.18;6.75;;;;;;;;;;5033307;28;20025;-60
2023/06/15 06:51:42;;;;;;;11.23;6.80;;;;;;;;;;5030676;28;20024;-60
2023/06/15 06:54:07;;;;;;;10.48;6.32;;;;;;;;;;5037694;28;20324;-60
2023/06/15 06:56:35;;;;;;;11.15;6.63;;;;;;;;;;5031247;28;20021;-61
2023/06/15 06:59:00;;;;;;;10.45;6.63;;;;;;;;;;5030397;28;20078;-59
2023/06/15 07:01:28;;;;;;;10.20;7.40;;;;;;;;;;5038145;28;20429;-60
2023/06/15 07:03:53;;;;;;;8.93;6.28;;;;;;;;;;5027493;28;20017;-60
2023/06/15 07:06:18;;;;;;;10.68;7.13;;;;;;;;;;5031344;28;20083;-60
2023/06/15 07:08:44;;;;;;;9.20;6.68;;;;;;;;;;5036281;28;20051;-60
2023/06/15 07:11:09;;;;;;;9.43;7.05;;;;;;;;;;5029647;28;20021;-61
2023/06/15 07:13:34;;;;;;;10.50;6.70;;;;;;;;;;5034622;28;20025;-60
2023/06/15 07:16:02;;;;;;;10.98;7.95;;;;;;;;;;5030699;28;20035;-59
2023/06/15 07:18:27;;;;;;;8.98;7.10;;;;;;;;;;5030639;28;20601;-60
2023/06/15 07:20:55;;;;;;;11.02;7.82;;;;;;;;;;5032363;28;20027;-60
2023/06/15 07:23:21;;;;;;;11.45;6.85;;;;;;;;;;5030405;28;20035;-61
2023/06/15 07:25:47;;;;;;;10.45;6.55;;;;;;;;;;5033432;28;20025;-60
2023/06/15 07:28:14;;;;;;;9.30;6.57;;;;;;;;;;5028111;28;20021;-60
2023/06/15 07:30:43;;;;;;;9.88;7.03;;;;;;;;;;5036356;28;20056;-60
2023/06/15 07:33:09;;;;;;;8.70;6.85;;;;;;;;;;5032239;28;20020;-61
2023/06/15 07:35:34;;;;;;;9.48;6.82;;;;;;;;;;5034637;28;20031;-61
2023/06/15 07:38:02;;;;;;;13.10;7.70;;;;;;;;;;5033101;28;20033;-60
2023/06/15 07:40:27;;;;;;;13.60;8.00;;;;;;;;;;5034823;28;20290;-60
2023/06/15 07:42:52;;;;;;;9.95;6.85;;;;;;;;;;5033156;28;20136;-60
2023/06/15 07:45:17;;;;;;;16.25;7.75;;;;;;;;;;5030385;28;20426;-60
2023/06/15 07:47:43;;;;;;;10.75;6.65;;;;;;;;;;5030123;28;20364;-61
2023/06/15 07:50:08;;;;;;;11.23;6.95;;;;;;;;;;5028627;28;20384;-60
2023/06/15 07:52:36;;;;;;;9.77;7.20;;;;;;;;;;5036498;28;20061;-60
2023/06/15 07:55:01;;;;;;;9.27;6.40;;;;;;;;;;5029205;28;20531;-60
2023/06/15 07:57:26;;;;;;;8.73;6.18;;;;;;;;;;5036762;28;20043;-60
2023/06/15 07:59:52;;;;;;;8.40;6.20;;;;;;;;;;5027527;28;20052;-60
2023/06/15 08:02:19;;;;;;;9.10;6.70;;;;;;;;;;5037068;28;20016;-60
2023/06/15 08:04:45;;;;;;;8.07;5.78;;;;;;;;;;5028031;28;20033;-60
2023/06/15 08:07:12;;;;;;;9.25;6.47;;;;;;;;;;5027374;28;20727;-61
2023/06/15 08:09:38;;;;;;;8.45;6.03;;;;;;;;;;5031875;28;20555;-60
2023/06/15 08:12:06;;;;;;;8.30;5.80;;;;;;;;;;5031740;28;20029;-61
2023/06/15 08:14:31;;;;;;;9.20;5.88;;;;;;;;;;5031832;28;21139;-60
2023/06/15 08:16:56;;;;;;;8.57;6.17;;;;;;;;;;5024245;28;20029;-61
2023/06/15 08:19:21;;;;;;;8.50;5.80;;;;;;;;;;5031901;28;20795;-59
2023/06/15 08:21:47;;;;;;;9.33;5.93;;;;;;;;;;5031957;28;20056;-60
2023/06/15 08:24:12;;;;;;;8.80;5.03;;;;;;;;;;5032169;28;20025;-59
2023/06/15 08:26:42;;;;;;;7.85;5.25;;;;;;;;;;5028074;28;20727;-60
2023/06/15 08:29:10;;;;;;;9.95;5.07;;;;;;;;;;5026200;28;20098;-60
2023/06/15 08:31:35;;;;;;;8.98;5.32;;;;;;;;;;5028774;28;20048;-60
2023/06/15 08:34:01;;;;;;;7.63;4.97;;;;;;;;;;5024618;28;20057;-60
2023/06/15 08:36:26;;;;;;;7.17;5.07;;;;;;;;;;5029860;28;20260;-60
2023/06/15 08:38:51;;;;;;;9.68;5.40;;;;;;;;;;5027522;28;20260;-60
2023/06/15 08:41:17;;;;;;;8.00;5.07;;;;;;;;;;5029651;28;20059;-61
2023/06/15 08:43:44;;;;;;;7.82;4.97;;;;;;;;;;5027052;28;20279;-61
2023/06/15 08:46:12;;;;;;;8.13;5.20;;;;;;;;;;5023872;28;20134;-60
2023/06/15 08:48:38;;;;;;;7.47;5.15;;;;;;;;;;5030143;28;20140;-60
2023/06/15 08:51:04;;;;;;;8.52;5.15;;;;;;;;;;5025350;28;20017;-60
2023/06/15 08:53:33;;;;;;;7.32;4.82;;;;;;;;;;5032006;28;20029;-60
2023/06/15 08:55:58;;;;;;;6.38;4.20;;;;;;;;;;5027513;28;20017;-59
2023/06/15 08:58:23;;;;;;;7.77;4.63;;;;;;;;;;5029081;28;20104;-60
2023/06/15 09:00:50;;;;;;;8.90;4.80;;;;;;;;;;5024203;28;20877;-60
2023/06/15 09:03:17;;;;;;;8.13;4.53;;;;;;;;;;5032129;28;20270;-60
2023/06/15 09:05:43;;;;;;;7.63;4.15;;;;;;;;;;5027017;28;20021;-60
2023/06/15 09:08:08;;;;;;;6.82;4.07;;;;;;;;;;5024682;28;20063;-59
2023/06/15 09:10:35;;;;;;;7.03;4.20;;;;;;;;;;5028101;28;20091;-60
2023/06/15 09:13:00;;;;;;;6.78;3.65;;;;;;;;;;5028759;28;20310;-61
2023/06/15 09:15:30;;;;;;;6.45;3.90;;;;;;;;;;5027455;28;20812;-60
2023/06/15 09:18:01;;;;;;;6.88;4.05;;;;;;;;;;5030832;28;20021;-61
2023/06/15 09:20:28;;;;;;;6.68;4.00;;;;;;;;;;5029237;28;20024;-61
2023/06/15 09:22:58;;;;;;;7.78;3.97;;;;;;;;;;5031782;28;20027;-60
2023/06/15 09:25:23;;;;;;;6.50;4.10;;;;;;;;;;5029136;28;20108;-59
2023/06/15 09:27:54;;;;;;;7.43;4.37;;;;;;;;;;5032809;28;20028;-60
2023/06/15 09:30:20;;;;;;;7.57;4.22;;;;;;;;;;5025823;28;20316;-60
2023/06/15 09:32:47;;;;;;;7.57;4.03;;;;;;;;;;5023911;28;20141;-60
2023/06/15 09:35:15;;;;;;;6.10;3.83;;;;;;;;;;5027848;28;20027;-60
2023/06/15 09:37:40;;;;;;;9.15;4.78;;;;;;;;;;5028115;28;20032;-60
2023/06/15 09:40:10;;;;;;;6.13;4.22;;;;;;;;;;5029133;28;20060;-60
2023/06/15 09:42:36;;;;;;;6.07;3.88;;;;;;;;;;5024938;28;20104;-60
2023/06/15 09:45:03;;;;;;;7.13;4.65;;;;;;;;;;5030108;28;20025;-60
2023/06/15 09:47:29;;;;;;;8.98;4.65;;;;;;;;;;5029155;28;20048;-60
2023/06/15 09:49:55;;;;;;;7.05;4.10;;;;;;;;;;5027908;28;20018;-59
2023/06/15 09:52:20;;;;;;;6.10;3.97;;;;;;;;;;5029610;28;20945;-60
2023/06/15 09:54:50;;;;;;;7.28;4.18;;;;;;;;;;5019880;28;20112;-60
2023/06/15 09:57:18;;;;;;;7.97;5.47;;;;;;;;;;5033546;28;20032;-60
2023/06/15 09:59:46;;;;;;;9.15;4.93;;;;;;;;;;5022569;28;20124;-60
2023/06/15 10:02:12;;;;;;;10.38;5.38;;;;;;;;;;5029297;28;20410;-60
2023/06/15 10:04:39;;;;;;;8.35;5.63;;;;;;;;;;5030009;28;20024;-60
2023/06/15 10:07:05;;;;;;;9.15;4.82;;;;;;;;;;5028474;28;20021;-60
2023/06/15 10:09:39;;;;;;;7.03;4.68;;;;;;;;;;5024776;28;20036;-59
2023/06/15 10:12:10;;;;;;;8.18;4.70;;;;;;;;;;5030543;28;20054;-60
2023/06/15 10:14:45;;;;;;;7.45;4.70;;;;;;;;;;5027392;28;20630;-60
2023/06/15 10:17:13;;;;;;;7.80;5.50;;;;;;;;;;5023608;28;20055;-60
2023/06/15 10:19:42;;;;;;;7.63;5.13;;;;;;;;;;5028584;28;20024;-60
2023/06/15 10:22:11;;;;;;;7.10;4.68;;;;;;;;;;5025057;28;20487;-60
2023/06/15 10:24:37;;;;;;;8.45;5.30;;;;;;;;;;5030600;28;20060;-60
2023/06/15 10:27:04;;;;;;;10.90;4.72;;;;;;;;;;5027658;28;20075;-59
2023/06/15 10:29:32;;;;;;;9.90;5.30;;;;;;;;;;5027944;28;20048;-59
2023/06/15 10:32:06;;;;;;;7.18;4.88;;;;;;;;;;5027300;28;20032;-60
2023/06/15 10:34:40;;;;;;;8.07;5.10;;;;;;;;;;5032408;28;20041;-60
2023/06/15 10:37:09;;;;;;;7.60;4.88;;;;;;;;;;5026385;28;20095;-60
2023/06/15 10:39:47;;;;;;;8.02;5.30;;;;;;;;;;5027888;28;20270;-61
2023/06/15 10:42:13;;;;;;;8.05;4.60;;;;;;;;;;5030997;28;20025;-60
2023/06/15 10:44:39;;;;;;;6.97;4.75;;;;;;;;;;5014432;28;20147;-60
2023/06/15 10:47:14;;;;;;;7.05;4.75;;;;;;;;;;5028950;28;20101;-59
2023/06/15 10:49:50;;;;;;;8.38;4.90;;;;;;;;;;5025624;28;20756;-60
2023/06/15 10:52:16;;;;;;;7.28;4.82;;;;;;;;;;5028872;28;20014;-61
2023/06/15 10:54:41;;;;;;;6.97;4.97;;;;;;;;;;5021903;28;20036;-60
2023/06/15 10:57:07;;;;;;;7.47;5.07;;;;;;;;;;5023329;28;20033;-60
2023/06/15 10:59:38;;;;;;;7.00;4.80;;;;;;;;;;5026076;28;20078;-60
2023/06/15 11:02:24;;;;;;;7.50;4.63;;;;;;;;;;5021235;28;20104;-59
2023/06/15 11:04:52;;;;;;;7.22;5.10;;;;;;;;;;5025430;28;20047;-60
2023/06/15 11:07:30;;;;;;;6.33;4.50;;;;;;;;;;5025176;28;20026;-60
2023/06/15 11:09:58;;;;;;;6.18;4.22;;;;;;;;;;5032852;28;20017;-61
2023/06/15 11:12:36;;;;;;;7.28;4.75;;;;;;;;;;5039549;28;20123;-60
2023/06/15 11:15:05;;;;;;;7.65;4.60;;;;;;;;;;5032087;28;20025;-61
2023/06/15 11:17:51;;;;;;;7.38;4.57;;;;;;;;;;5052831;28;20711;-60
2023/06/15 11:20:39;;;;;;;7.70;5.03;;;;;;;;;;5026741;28;20419;-60
2023/06/15 11:23:09;;;;;;;6.60;5.07;;;;;;;;;;5056474;28;20028;-60
2023/06/15 11:25:38;;;;;;;7.38;4.53;;;;;;;;;;5062972;28;20297;-60
2023/06/15 11:28:04;;;;;;;7.03;4.67;;;;;;;;;;5031636;28;20013;-60
2023/06/15 11:30:31;;;;;;;6.50;4.47;;;;;;;;;;5031903;28;20213;-60
2023/06/15 11:32:59;;;;;;;6.32;4.63;;;;;;;;;;5028752;28;20025;-59
2023/06/15 11:35:28;;;;;;;6.97;5.10;;;;;;;;;;5031870;28;20056;-60
2023/06/15 11:37:56;;;;;;;7.53;4.68;;;;;;;;;;5029582;28;20025;-60
2023/06/15 11:40:21;;;;;;;8.00;5.00;;;;;;;;;;5030580;28;20017;-60
2023/06/15 11:42:49;;;;;;;8.47;4.97;;;;;;;;;;5032926;28;20020;-60
2023/06/15 11:45:18;;;;;;;8.05;4.57;;;;;;;;;;5030793;28;20025;-60
2023/06/15 11:47:45;;;;;;;7.38;4.65;;;;;;;;;;5031041;28;20799;-59
2023/06/15 11:50:10;;;;;;;8.35;5.00;;;;;;;;;;5039048;28;20066;-61
2023/06/15 11:52:43;;;;;;;6.13;4.60;;;;;;;;;;5026056;28;20018;-60
2023/06/15 11:55:10;;;;;;;7.47;5.15;;;;;;;;;;5061852;28;21497;-60
2023/06/15 11:57:40;;;;;;;9.63;5.03;;;;;;;;;;5036307;28;20700;-60
2023/06/15 12:00:07;;;;;;;8.02;5.35;;;;;;;;;;5026665;28;20082;-61
2023/06/15 12:02:34;;;;;;;7.65;5.47;;;;;;;;;;5034067;28;20032;-60
2023/06/15 12:04:59;;;;;;;7.18;5.13;;;;;;;;;;5031726;28;20087;-61
2023/06/15 12:07:24;;;;;;;10.87;5.00;;;;;;;;;;5027187;28;20008;-60
2023/06/15 12:09:50;;;;;;;8.02;5.18;;;;;;;;;;5026449;28;20248;-60
2023/06/15 12:12:28;;;;;;;7.57;4.55;;;;;;;;;;5030839;28;21401;-59
2023/06/15 12:14:56;;;;;;;7.55;5.07;;;;;;;;;;5026337;28;20017;-60
2023/06/15 12:17:32;;;;;;;7.00;4.80;;;;;;;;;;5029573;28;20404;-60
2023/06/15 12:19:57;;;;;;;7.30;5.10;;;;;;;;;;5034206;28;20774;-60
2023/06/15 12:22:33;;;;;;;7.82;5.10;;;;;;;;;;5028079;28;20036;-60
2023/06/15 12:25:03;;;;;;;7.85;5.05;;;;;;;;;;5030373;28;20418;-60
2023/06/15 12:27:29;;;;;;;7.18;5.07;;;;;;;;;;5035575;28;20107;-61
2023/06/15 12:29:57;;;;;;;9.50;5.10;;;;;;;;;;5030672;28;20073;-60
2023/06/15 12:32:27;;;;;;;10.00;5.15;;;;;;;;;;5028731;28;20017;-60
2023/06/15 12:34:54;;;;;;;7.82;5.15;;;;;;;;;;5035524;28;20036;-61
2023/06/15 12:37:19;;;;;;;9.77;4.85;;;;;;;;;;5028949;28;20059;-60
2023/06/15 12:39:45;;;;;;;7.47;5.13;;;;;;;;;;5035257;28;20471;-61
2023/06/15 12:42:18;;;;;;;10.15;5.40;;;;;;;;;;5028139;28;20025;-60
2023/06/15 12:44:46;;;;;;;7.32;5.20;;;;;;;;;;5060702;28;20033;-60
2023/06/15 12:47:11;;;;;;;8.15;5.30;;;;;;;;;;5027518;28;20044;-60
2023/06/15 12:49:39;;;;;;;11.32;5.20;;;;;;;;;;5024090;28;20127;-60
2023/06/15 12:52:07;;;;;;;8.00;5.05;;;;;;;;;;5029075;28;20032;-60
2023/06/15 12:54:34;;;;;;;8.45;4.75;;;;;;;;;;5034004;28;20794;-61
2023/06/15 12:57:00;;;;;;;8.25;5.15;;;;;;;;;;5029793;28;20052;-61
2023/06/15 12:59:25;;;;;;;8.40;4.90;;;;;;;;;;5033744;28;20190;-61
2023/06/15 13:01:50;;;;;;;8.77;4.60;;;;;;;;;;5026558;28;20123;-61
2023/06/15 13:04:18;;;;;;;6.50;4.60;;;;;;;;;;5033601;28;20047;-60
2023/06/15 13:06:43;;;;;;;7.95;4.80;;;;;;;;;;5027731;28;20266;-61
2023/06/15 13:09:09;;;;;;;7.35;4.70;;;;;;;;;;5031227;28;20946;-61
2023/06/15 13:11:34;;;;;;;7.13;4.93;;;;;;;;;;5027641;28;20683;-60
2023/06/15 13:14:01;;;;;;;9.30;6.00;;;;;;;;;;5027804;28;20119;-61
2023/06/15 13:16:29;;;;;;;7.20;5.00;;;;;;;;;;5039965;28;20021;-61
2023/06/15 13:18:54;;;;;;;8.05;4.93;;;;;;;;;;5028019;28;20495;-61
2023/06/15 13:21:21;;;;;;;7.73;5.30;;;;;;;;;;5027058;28;20017;-60
2023/06/15 13:23:46;;;;;;;9.32;5.70;;;;;;;;;;5029721;28;20260;-59
2023/06/15 13:26:11;;;;;;;6.53;4.80;;;;;;;;;;5029599;28;20048;-61
2023/06/15 13:28:36;;;;;;;6.93;5.03;;;;;;;;;;5027174;28;21187;-60
2023/06/15 13:31:02;;;;;;;7.80;5.50;;;;;;;;;;5037288;28;20287;-61
2023/06/15 13:33:27;;;;;;;7.93;4.82;;;;;;;;;;5036768;28;20025;-59
2023/06/15 13:35:54;;;;;;;9.40;5.65;;;;;;;;;;5028636;28;20025;-60
2023/06/15 13:38:19;;;;;;;8.00;5.35;;;;;;;;;;5031392;28;20017;-60
2023/06/15 13:40:45;;;;;;;7.22;4.95;;;;;;;;;;5029336;28;20709;-61
2023/06/15 13:43:10;;;;;;;9.17;5.70;;;;;;;;;;5029631;28;20040;-61
2023/06/15 13:45:35;;;;;;;8.32;5.55;;;;;;;;;;5026269;28;20689;-60
2023/06/15 13:48:05;;;;;;;8.40;5.97;;;;;;;;;;5030895;28;20027;-60
2023/06/15 13:50:31;;;;;;;8.57;6.00;;;;;;;;;;5029852;28;20028;-60
2023/06/15 13:52:56;;;;;;;7.73;5.40;;;;;;;;;;5030278;28;20021;-60
2023/06/15 13:55:21;;;;;;;7.70;5.17;;;;;;;;;;5034486;28;20745;-60
2023/06/15 13:57:47;;;;;;;8.75;5.30;;;;;;;;;;5031028;28;20385;-59
2023/06/15 14:00:13;;;;;;;8.73;5.25;;;;;;;;;;5028459;28;20428;-61
2023/06/15 14:02:40;;;;;;;7.95;5.43;;;;;;;;;;5028222;28;20467;-60
2023/06/15 14:05:05;;;;;;;7.60;5.45;;;;;;;;;;5023768;28;20022;-60
2023/06/15 14:07:34;;;;;;;8.73;5.18;;;;;;;;;;5028196;28;20632;-60
2023/06/15 14:09:59;;;;;;;7.77;5.10;;;;;;;;;;5026677;28;20113;-60
2023/06/15 14:12:27;;;;;;;7.03;5.60;;;;;;;;;;5032576;28;20259;-60
2023/06/15 14:14:54;;;;;;;8.25;5.78;;;;;;;;;;5021844;28;20017;-60
2023/06/15 14:17:20;;;;;;;8.85;5.68;;;;;;;;;;5026545;28;20059;-61
2023/06/15 14:19:45;;;;;;;8.38;5.70;;;;;;;;;;5030921;28;20116;-60
2023/06/15 14:22:10;;;;;;;7.27;5.60;;;;;;;;;;5029159;28;20490;-59
2023/06/15 14:24:36;;;;;;;8.90;5.50;;;;;;;;;;5029290;28;20462;-60
2023/06/15 14:27:01;;;;;;;7.18;5.30;;;;;;;;;;5028786;28;21276;-61
2023/06/15 14:29:27;;;;;;;7.97;5.20;;;;;;;;;;5035395;28;20055;-60
2023/06/15 14:31:52;;;;;;;9.60;5.07;;;;;;;;;;5034060;28;20102;-60
2023/06/15 14:34:19;;;;;;;7.95;5.25;;;;;;;;;;5027404;28;20614;-59
2023/06/15 14:36:45;;;;;;;8.95;5.18;;;;;;;;;;5035793;28;20025;-61
2023/06/15 14:39:10;;;;;;;6.45;4.32;;;;;;;;;;5031138;28;20020;-61